createdAt,value
2019-03-31T00:00:07.026Z,100.07
2019-03-31T00:02:34.975Z,96.40
2019-03-31T00:05:02.910Z,94.60
2019-03-31T00:07:31.163Z,94.43
2019-03-31T00:09:59.313Z,93.70
2019-03-31T00:12:27.556Z,92.37
2019-03-31T00:14:55.582Z,93.23
2019-03-31T00:17:23.659Z,98.27
2019-03-31T00:19:51.660Z,92.27
2019-03-31T00:22:38.768Z,98.53
2019-03-31T00:25:06.814Z,100.97
2019-03-31T00:27:34.796Z,98.23
2019-03-31T00:30:21.899Z,98.50
2019-03-31T00:32:49.803Z,96.00
2019-03-31T00:35:17.826Z,99.50
2019-03-31T00:37:46.218Z,99.20
2019-03-31T00:40:14.332Z,97.83
2019-03-31T00:42:42.460Z,89.87
2019-03-31T00:45:10.412Z,98.53
2019-03-31T00:47:38.405Z,96.00
2019-03-31T00:50:06.667Z,97.03
2019-03-31T00:52:34.880Z,101.23
2019-03-31T00:55:03.141Z,99.50
2019-03-31T00:57:31.199Z,98.93
2019-03-31T00:59:59.172Z,99.93
2019-03-31T01:02:46.793Z,100.37
2019-03-31T01:05:14.915Z,96.03
2019-03-31T01:07:42.984Z,96.23
2019-03-31T01:10:12.238Z,99.23
2019-03-31T01:12:40.295Z,97.87
2019-03-31T01:15:12.193Z,100.07
2019-03-31T01:17:40.541Z,98.77
2019-03-31T01:20:08.957Z,102.80
2019-03-31T01:22:56.197Z,99.77
2019-03-31T01:25:24.471Z,93.77
2019-03-31T01:27:52.687Z,98.40
2019-03-31T01:30:21.540Z,99.17
2019-03-31T01:32:50.122Z,103.33
2019-03-31T01:35:18.305Z,96.67
2019-03-31T01:38:05.799Z,97.77
2019-03-31T01:40:53.105Z,92.93
2019-03-31T01:43:34.206Z,90.80
2019-03-31T01:46:02.128Z,93.27
2019-03-31T01:48:30.067Z,87.20
2019-03-31T01:50:58.260Z,88.40
2019-03-31T01:53:26.596Z,96.60
2019-03-31T01:55:54.630Z,92.17
2019-03-31T01:58:22.705Z,92.60
2019-03-31T02:00:54.717Z,93.27
2019-03-31T02:03:41.983Z,84.47
2019-03-31T02:06:29.470Z,97.10
2019-03-31T02:08:57.638Z,93.83
2019-03-31T02:11:25.870Z,95.70
2019-03-31T02:13:53.800Z,85.73
2019-03-31T02:16:21.781Z,99.17
2019-03-31T02:18:49.717Z,88.43
2019-03-31T02:21:17.866Z,89.17
2019-03-31T02:24:05.057Z,88.77
2019-03-31T02:26:33.343Z,85.77
2019-03-31T02:29:01.681Z,89.87
2019-03-31T02:31:30.023Z,83.17
2019-03-31T02:33:58.014Z,82.47
2019-03-31T02:36:26.035Z,85.27
2019-03-31T02:38:54.107Z,80.87
2019-03-31T02:41:21.969Z,82.77
2019-03-31T02:43:52.764Z,84.83
2019-03-31T02:46:20.748Z,84.07
2019-03-31T02:48:48.776Z,81.17
2019-03-31T02:51:16.744Z,77.83
2019-03-31T02:53:44.951Z,77.80
2019-03-31T02:56:13.064Z,72.70
2019-03-31T02:58:41.252Z,75.13
2019-03-31T03:01:09.229Z,69.00
2019-03-31T03:03:37.518Z,73.60
2019-03-31T03:06:05.547Z,67.30
2019-03-31T03:08:33.939Z,64.33
2019-03-31T03:11:02.832Z,61.63
2019-03-31T03:13:31.068Z,64.30
2019-03-31T03:16:19.120Z,58.47
2019-03-31T03:18:47.448Z,57.87
2019-03-31T03:21:15.604Z,56.93
2019-03-31T03:23:43.619Z,60.03
2019-03-31T03:26:11.826Z,51.93
2019-03-31T03:28:40.217Z,53.67
2019-03-31T03:31:15.206Z,49.37
2019-03-31T03:33:57.420Z,51.00
2019-03-31T03:36:26.330Z,51.90
2019-03-31T03:38:54.282Z,51.07
2019-03-31T03:41:41.575Z,47.23
2019-03-31T03:44:09.565Z,49.53
2019-03-31T03:46:37.594Z,43.03
2019-03-31T03:49:05.997Z,45.00
2019-03-31T03:51:34.184Z,42.87
2019-03-31T03:54:21.674Z,36.20
2019-03-31T03:56:49.919Z,37.90
2019-03-31T03:59:18.041Z,32.47
2019-03-31T04:01:46.080Z,35.70
2019-03-31T04:04:14.243Z,32.30
2019-03-31T04:06:42.256Z,32.73
2019-03-31T04:09:10.182Z,29.90
2019-03-31T04:11:38.465Z,28.50
2019-03-31T04:14:06.513Z,29.27
2019-03-31T04:16:34.589Z,31.37
2019-03-31T04:19:02.900Z,31.13
2019-03-31T04:21:30.950Z,28.93
2019-03-31T04:23:59.085Z,27.77
2019-03-31T04:26:27.397Z,27.53
2019-03-31T04:28:55.791Z,26.37
2019-03-31T04:31:23.842Z,25.23
2019-03-31T04:34:11.256Z,25.67
2019-03-31T04:36:39.442Z,26.63
2019-03-31T04:39:07.520Z,29.30
2019-03-31T04:41:35.737Z,25.17
2019-03-31T04:44:03.663Z,23.93
2019-03-31T04:46:31.923Z,23.83
2019-03-31T04:49:19.141Z,22.90
2019-03-31T04:54:32.412Z,25.00
2019-03-31T04:57:00.330Z,25.87
2019-03-31T04:59:47.780Z,23.30
2019-03-31T05:02:35.254Z,25.10
2019-03-31T05:05:15.778Z,22.67
2019-03-31T05:07:43.767Z,22.20
2019-03-31T05:10:11.701Z,21.80
2019-03-31T05:12:39.876Z,20.90
2019-03-31T05:15:27.065Z,21.83
2019-03-31T05:17:55.149Z,23.23
2019-03-31T05:20:23.413Z,21.70
2019-03-31T05:22:52.966Z,19.67
2019-03-31T05:25:21.147Z,23.07
2019-03-31T05:27:49.056Z,21.43
2019-03-31T05:30:36.172Z,16.37
2019-03-31T05:33:04.479Z,18.70
2019-03-31T05:35:32.551Z,19.13
2019-03-31T05:38:19.812Z,17.97
2019-03-31T05:40:49.892Z,18.90
2019-03-31T05:43:17.966Z,19.97
2019-03-31T05:45:45.991Z,20.17
2019-03-31T05:48:33.371Z,24.30
2019-03-31T05:51:01.745Z,17.47
2019-03-31T05:53:29.802Z,20.03
2019-03-31T05:55:57.822Z,18.37
2019-03-31T05:58:25.774Z,19.60
2019-03-31T06:01:13.005Z,26.83
2019-03-31T06:03:41.152Z,23.23
2019-03-31T06:06:09.167Z,19.00
2019-03-31T06:08:37.219Z,19.13
2019-03-31T06:11:05.518Z,23.07
2019-03-31T06:13:33.760Z,21.00
2019-03-31T06:16:21.151Z,15.00
2019-03-31T06:18:49.521Z,16.93
2019-03-31T06:21:17.828Z,23.17
2019-03-31T06:24:05.162Z,25.03
2019-03-31T06:26:33.465Z,18.70
2019-03-31T06:29:02.252Z,19.10
2019-03-31T06:31:30.270Z,20.90
2019-03-31T06:33:58.274Z,21.80
2019-03-31T06:36:45.589Z,19.27
2019-03-31T06:39:13.679Z,14.83
2019-03-31T06:41:41.813Z,14.93
2019-03-31T06:44:10.272Z,13.97
2019-03-31T06:46:38.321Z,18.43
2019-03-31T06:49:06.798Z,14.30
2019-03-31T06:51:35.340Z,14.93
2019-03-31T06:54:03.683Z,12.37
2019-03-31T06:56:31.747Z,18.40
2019-03-31T06:59:00.087Z,17.87
2019-03-31T07:01:28.381Z,16.83
2019-03-31T07:03:56.663Z,13.47
2019-03-31T07:06:25.133Z,15.90
2019-03-31T07:08:53.133Z,12.43
2019-03-31T07:11:21.080Z,14.40
2019-03-31T07:13:49.015Z,13.83
2019-03-31T07:16:17.216Z,16.83
2019-03-31T07:18:46.787Z,13.60
2019-03-31T07:21:14.886Z,13.17
2019-03-31T07:23:42.974Z,14.00
2019-03-31T07:26:11.058Z,10.07
2019-03-31T07:28:39.259Z,10.67
2019-03-31T07:31:27.604Z,14.47
2019-03-31T07:34:14.866Z,13.27
2019-03-31T07:36:43.349Z,10.47
2019-03-31T07:39:11.460Z,9.00
2019-03-31T07:41:39.486Z,11.60
2019-03-31T07:44:07.499Z,10.63
2019-03-31T07:46:35.483Z,8.73
2019-03-31T07:49:03.542Z,8.87
2019-03-31T07:51:31.510Z,13.43
2019-03-31T07:53:59.737Z,10.73
2019-03-31T07:56:27.864Z,7.87
2019-03-31T07:58:56.117Z,9.50
2019-03-31T08:01:24.226Z,9.10
2019-03-31T08:04:11.472Z,7.73
2019-03-31T08:06:39.655Z,7.67
2019-03-31T08:09:07.679Z,7.70
2019-03-31T08:11:35.803Z,7.20
2019-03-31T08:14:03.748Z,7.97
2019-03-31T08:16:51.848Z,7.17
2019-03-31T08:19:20.833Z,6.87
2019-03-31T08:21:48.956Z,7.77
2019-03-31T08:24:17.070Z,4.27
2019-03-31T08:26:45.099Z,6.63
2019-03-31T08:29:32.363Z,8.30
2019-03-31T08:32:00.440Z,6.53
2019-03-31T08:34:28.461Z,5.33
2019-03-31T08:36:56.494Z,4.77
2019-03-31T08:39:24.514Z,5.03
2019-03-31T08:41:52.876Z,5.10
2019-03-31T08:44:21.210Z,5.73
2019-03-31T08:46:49.310Z,3.13
2019-03-31T08:49:17.384Z,2.50
2019-03-31T08:51:48.678Z,5.10
2019-03-31T08:54:30.051Z,8.13
2019-03-31T08:56:58.277Z,4.07
2019-03-31T08:59:26.367Z,5.00
2019-03-31T09:01:54.571Z,2.23
2019-03-31T09:04:22.926Z,4.47
2019-03-31T09:07:10.065Z,5.30
2019-03-31T09:09:38.157Z,4.87
2019-03-31T09:12:06.102Z,5.60
2019-03-31T09:14:37.305Z,4.57
2019-03-31T09:17:05.453Z,3.00
2019-03-31T09:19:33.718Z,3.53
2019-03-31T09:22:02.036Z,4.93
2019-03-31T09:24:30.327Z,3.57
2019-03-31T09:26:58.522Z,3.90
2019-03-31T09:29:46.096Z,6.43
2019-03-31T09:32:19.611Z,4.90
2019-03-31T09:34:47.873Z,7.47
2019-03-31T09:37:16.119Z,6.33
2019-03-31T09:39:44.059Z,6.63
2019-03-31T09:42:12.100Z,5.70
2019-03-31T09:44:59.306Z,5.23
2019-03-31T09:47:27.376Z,5.33
2019-03-31T09:49:55.345Z,8.90
2019-03-31T09:52:23.471Z,7.03
2019-03-31T09:54:51.781Z,7.97
2019-03-31T09:57:28.117Z,7.80
2019-03-31T09:59:56.153Z,7.17
2019-03-31T10:02:24.272Z,7.90
2019-03-31T10:04:52.468Z,6.20
2019-03-31T10:07:23.754Z,7.03
2019-03-31T10:09:50.934Z,5.60
2019-03-31T10:12:19.214Z,7.50
2019-03-31T10:14:47.337Z,6.63
2019-03-31T10:17:15.477Z,6.87
2019-03-31T10:19:43.533Z,7.53
2019-03-31T10:22:11.621Z,5.60
2019-03-31T10:24:39.899Z,7.70
2019-03-31T10:27:10.726Z,5.13
2019-03-31T10:29:38.785Z,6.43
2019-03-31T10:32:25.959Z,7.03
2019-03-31T10:34:54.694Z,5.77
2019-03-31T10:37:22.788Z,9.70
2019-03-31T10:39:50.817Z,8.53
2019-03-31T10:42:19.024Z,7.40
2019-03-31T10:44:47.424Z,11.13
2019-03-31T10:47:15.777Z,15.20
2019-03-31T10:49:43.811Z,16.83
2019-03-31T10:52:11.764Z,15.67
2019-03-31T10:54:39.832Z,18.33
2019-03-31T10:57:27.107Z,14.63
2019-03-31T10:59:55.165Z,15.63
2019-03-31T11:02:23.136Z,14.53
2019-03-31T11:04:51.491Z,16.77
2019-03-31T11:07:19.968Z,14.00
2019-03-31T11:09:47.986Z,11.90
2019-03-31T11:12:16.052Z,13.57
2019-03-31T11:14:44.159Z,10.80
2019-03-31T11:17:12.189Z,10.73
2019-03-31T11:19:40.656Z,11.60
2019-03-31T11:22:56.532Z,11.43
2019-03-31T11:25:36.949Z,7.63
2019-03-31T11:28:05.513Z,8.97
2019-03-31T11:30:33.552Z,8.03
2019-03-31T11:33:01.766Z,10.37
2019-03-31T11:35:49.102Z,13.43
2019-03-31T11:38:17.388Z,11.27
2019-03-31T11:40:45.472Z,9.30
2019-03-31T11:43:32.924Z,11.10
2019-03-31T11:46:01.037Z,9.03
2019-03-31T11:48:29.123Z,10.53
2019-03-31T11:51:00.347Z,12.40
2019-03-31T11:53:27.400Z,11.43
2019-03-31T11:55:55.694Z,9.97
2019-03-31T11:58:23.786Z,11.47
2019-03-31T12:00:54.829Z,7.60
2019-03-31T12:03:22.955Z,9.57
2019-03-31T12:05:50.964Z,6.87
2019-03-31T12:08:18.918Z,11.17
2019-03-31T12:10:46.928Z,9.37
2019-03-31T12:13:15.288Z,9.10
2019-03-31T12:15:43.643Z,10.67
2019-03-31T12:18:11.800Z,9.53
2019-03-31T12:20:40.043Z,9.73
2019-03-31T12:23:09.985Z,7.00
2019-03-31T12:25:38.274Z,11.33
2019-03-31T12:28:06.410Z,9.17
2019-03-31T12:30:34.428Z,9.00
2019-03-31T12:33:02.452Z,4.63
2019-03-31T12:35:31.137Z,8.23
2019-03-31T12:37:59.442Z,6.03
2019-03-31T12:40:32.040Z,7.80
2019-03-31T12:43:00.376Z,7.07
2019-03-31T12:45:28.610Z,8.83
2019-03-31T12:47:56.795Z,7.00
2019-03-31T12:50:24.781Z,10.03
2019-03-31T12:52:52.772Z,11.90
2019-03-31T12:55:21.155Z,10.07
2019-03-31T12:57:51.805Z,8.80
2019-03-31T13:00:19.361Z,7.67
2019-03-31T13:02:56.368Z,8.33
2019-03-31T13:05:24.367Z,10.10
2019-03-31T13:07:56.700Z,5.73
2019-03-31T13:10:22.596Z,5.63
2019-03-31T13:13:10.072Z,5.77
2019-03-31T13:15:38.398Z,10.67
2019-03-31T13:18:06.410Z,9.67
2019-03-31T13:20:34.511Z,9.27
2019-03-31T13:23:02.459Z,6.33
2019-03-31T13:25:30.499Z,7.23
2019-03-31T13:27:58.799Z,5.63
2019-03-31T13:30:27.022Z,5.90
2019-03-31T13:33:14.453Z,6.40
2019-03-31T13:38:27.347Z,5.23
2019-03-31T13:40:55.365Z,8.00
2019-03-31T13:43:42.536Z,6.20
2019-03-31T13:46:10.643Z,10.70
2019-03-31T13:48:38.737Z,9.23
2019-03-31T13:51:06.844Z,7.20
2019-03-31T13:53:34.964Z,11.10
2019-03-31T13:56:22.147Z,7.83
2019-03-31T13:58:52.452Z,6.07
2019-03-31T14:01:20.883Z,8.53
2019-03-31T14:03:49.145Z,6.57
2019-03-31T14:06:17.154Z,8.00
2019-03-31T14:08:45.183Z,7.93
2019-03-31T14:11:32.436Z,14.73
2019-03-31T14:14:00.431Z,6.37
2019-03-31T14:16:34.136Z,9.93
2019-03-31T14:19:21.383Z,6.27
2019-03-31T14:22:08.534Z,9.33
2019-03-31T14:24:37.039Z,8.70
2019-03-31T14:27:05.045Z,7.57
2019-03-31T14:29:52.276Z,9.83
2019-03-31T14:35:05.981Z,6.77
2019-03-31T14:37:34.247Z,7.63
2019-03-31T14:40:02.336Z,9.50
2019-03-31T14:42:31.038Z,8.20
2019-03-31T14:44:59.195Z,11.83
2019-03-31T14:47:27.228Z,9.13
2019-03-31T14:49:55.607Z,7.47
2019-03-31T14:52:27.511Z,10.80
2019-03-31T14:55:12.743Z,6.93
2019-03-31T14:57:41.201Z,8.87
2019-03-31T15:00:15.133Z,6.67
2019-03-31T15:02:39.399Z,6.57
2019-03-31T15:05:27.127Z,5.00
2019-03-31T15:08:14.411Z,4.43
2019-03-31T15:10:42.658Z,8.43
2019-03-31T15:13:10.928Z,7.50
2019-03-31T15:15:58.553Z,9.97
2019-03-31T15:18:26.884Z,7.83
2019-03-31T15:20:55.169Z,8.63
2019-03-31T15:23:29.020Z,7.73
2019-03-31T15:25:53.542Z,7.07
2019-03-31T15:28:21.745Z,12.90
2019-03-31T15:30:50.108Z,9.27
2019-03-31T15:33:24.328Z,5.90
2019-03-31T15:36:31.281Z,6.50
2019-03-31T15:39:08.769Z,7.57
2019-03-31T15:41:47.463Z,6.97
2019-03-31T15:44:15.545Z,8.47
2019-03-31T15:46:44.023Z,9.33
2019-03-31T15:49:16.297Z,7.53
2019-03-31T15:51:44.202Z,8.17
2019-03-31T15:54:13.851Z,8.17
2019-03-31T15:56:44.492Z,8.87
2019-03-31T15:59:12.717Z,7.00
2019-03-31T16:01:41.094Z,7.90
2019-03-31T16:04:09.021Z,5.90
2019-03-31T16:06:39.390Z,6.33
2019-03-31T16:09:07.686Z,11.50
2019-03-31T16:11:35.600Z,7.30
2019-03-31T16:14:03.477Z,7.97
2019-03-31T16:16:50.687Z,9.23
2019-03-31T16:19:18.656Z,7.90
2019-03-31T16:21:46.375Z,6.60
2019-03-31T16:24:14.233Z,8.67
2019-03-31T16:26:45.167Z,7.10
2019-03-31T16:29:19.057Z,4.80
2019-03-31T16:31:42.338Z,6.97
2019-03-31T16:34:32.393Z,8.93
2019-03-31T16:37:03.306Z,6.77
2019-03-31T16:40:06.075Z,8.13
2019-03-31T16:42:34.226Z,9.60
2019-03-31T16:45:05.008Z,9.17
2019-03-31T16:47:34.964Z,9.70
2019-03-31T16:50:03.316Z,4.83
2019-03-31T16:52:43.945Z,6.47
2019-03-31T16:55:20.484Z,4.23
2019-03-31T16:57:48.083Z,8.57
2019-03-31T17:00:17.573Z,9.17
2019-03-31T17:02:45.408Z,7.47
2019-03-31T17:05:21.760Z,5.93
2019-03-31T17:07:50.132Z,8.50
2019-03-31T17:10:39.213Z,4.47
2019-03-31T17:13:07.025Z,5.30
2019-03-31T17:15:34.651Z,3.43
2019-03-31T17:18:07.716Z,4.93
2019-03-31T17:20:35.268Z,4.50
2019-03-31T17:23:08.237Z,4.60
2019-03-31T17:28:45.054Z,6.53
2019-03-31T17:31:12.986Z,9.27
2019-03-31T17:33:40.519Z,3.63
2019-03-31T17:36:08.205Z,5.17
2019-03-31T17:38:38.234Z,7.20
2019-03-31T17:41:05.782Z,6.57
2019-03-31T17:43:33.344Z,7.50
2019-03-31T17:46:00.776Z,7.27
2019-03-31T17:48:28.557Z,3.07
2019-03-31T17:50:56.467Z,4.23
2019-03-31T17:53:24.181Z,12.03
2019-03-31T17:55:51.905Z,9.90
2019-03-31T17:58:19.652Z,5.90
2019-03-31T18:01:06.772Z,4.50
2019-03-31T18:03:41.868Z,5.13
2019-03-31T18:06:09.482Z,6.93
2019-03-31T18:08:36.906Z,4.73
2019-03-31T18:11:04.547Z,6.23
2019-03-31T18:13:37.327Z,5.70
2019-03-31T18:16:04.888Z,3.90
2019-03-31T18:18:32.583Z,6.60
2019-03-31T18:21:00.235Z,9.17
2019-03-31T18:23:47.370Z,7.00
2019-03-31T18:26:15.371Z,5.70
2019-03-31T18:28:43.916Z,4.83
2019-03-31T18:31:11.832Z,7.40
2019-03-31T18:33:39.702Z,3.90
2019-03-31T18:36:07.737Z,7.80
2019-03-31T18:38:55.698Z,8.70
2019-03-31T18:41:23.986Z,6.73
2019-03-31T18:43:52.125Z,8.80
2019-03-31T18:46:19.938Z,7.07
2019-03-31T18:48:52.667Z,6.20
2019-03-31T18:51:20.687Z,8.33
2019-03-31T18:54:06.666Z,10.23
2019-03-31T18:56:42.183Z,6.70
2019-03-31T18:59:44.192Z,7.63
2019-03-31T19:02:28.151Z,6.93
2019-03-31T19:05:06.169Z,9.97
2019-03-31T19:07:58.119Z,9.87
2019-03-31T19:10:49.217Z,7.17
2019-03-31T19:13:20.063Z,13.80
2019-03-31T19:16:03.103Z,5.83
2019-03-31T19:18:46.107Z,7.87
2019-03-31T19:21:19.560Z,6.50
2019-03-31T19:24:25.367Z,5.67
2019-03-31T19:27:02.128Z,6.33
2019-03-31T19:29:49.477Z,5.33
2019-03-31T19:32:35.889Z,9.03
2019-03-31T19:35:13.349Z,9.30
2019-03-31T19:37:57.041Z,4.33
2019-03-31T19:43:31.932Z,5.83
2019-03-31T19:46:28.302Z,7.17
2019-03-31T19:49:21.812Z,8.23
2019-03-31T19:52:16.412Z,7.77
2019-03-31T19:55:06.306Z,6.50
2019-03-31T19:57:49.104Z,7.07
2019-03-31T20:00:42.079Z,8.33
2019-03-31T20:03:18.471Z,8.57
2019-03-31T20:06:14.380Z,9.97
2019-03-31T20:08:50.184Z,8.47
2019-03-31T20:11:40.800Z,6.37
2019-03-31T20:14:37.059Z,7.97
2019-03-31T20:17:33.691Z,10.20
2019-03-31T20:20:32.572Z,5.90
2019-03-31T20:23:31.435Z,6.13
2019-03-31T20:26:13.923Z,9.97
2019-03-31T20:28:59.727Z,7.33
2019-03-31T20:31:53.068Z,8.50
2019-03-31T20:34:42.818Z,7.60
2019-03-31T20:37:19.256Z,9.20
2019-03-31T20:39:56.837Z,12.77
2019-03-31T20:43:01.640Z,7.80
2019-03-31T20:45:29.318Z,9.47
2019-03-31T20:47:57.113Z,10.13
2019-03-31T20:50:24.647Z,9.67
2019-03-31T20:52:52.170Z,7.77
2019-03-31T20:55:19.732Z,8.27
2019-03-31T20:57:47.077Z,6.57
2019-03-31T21:00:34.023Z,13.10
2019-03-31T21:03:21.158Z,8.13
2019-03-31T21:05:48.942Z,8.33
2019-03-31T21:08:16.500Z,9.17
2019-03-31T21:10:44.280Z,10.83
2019-03-31T21:13:11.904Z,10.03
2019-03-31T21:15:39.388Z,7.63
2019-03-31T21:18:08.343Z,7.67
2019-03-31T21:20:55.360Z,10.13
2019-03-31T21:23:22.904Z,6.07
2019-03-31T21:25:50.422Z,9.83
2019-03-31T21:28:17.887Z,10.30
2019-03-31T21:30:45.362Z,6.87
2019-03-31T21:33:12.828Z,7.13
2019-03-31T21:35:40.257Z,9.30
2019-03-31T21:38:07.783Z,5.23
2019-03-31T21:40:54.779Z,11.20
2019-03-31T21:43:22.486Z,11.57
2019-03-31T21:45:50.177Z,8.83
2019-03-31T21:48:17.693Z,8.60
2019-03-31T21:51:04.768Z,9.07
2019-03-31T21:53:32.424Z,4.60
2019-03-31T21:56:00.167Z,6.63
2019-03-31T21:58:27.548Z,7.40
2019-03-31T22:00:55.693Z,7.27
2019-03-31T22:03:23.255Z,8.40
2019-03-31T22:05:51.812Z,8.40
2019-03-31T22:08:20.800Z,7.87
2019-03-31T22:11:07.768Z,7.60
2019-03-31T22:13:35.458Z,4.43
2019-03-31T22:16:03.318Z,7.43
2019-03-31T22:18:31.100Z,6.43
2019-03-31T22:20:58.998Z,6.33
2019-03-31T22:23:26.710Z,6.67
2019-03-31T22:25:54.282Z,9.80
2019-03-31T22:28:21.792Z,8.13
2019-03-31T22:30:49.264Z,2.83
2019-03-31T22:33:16.825Z,6.47
2019-03-31T22:36:03.901Z,8.37
2019-03-31T22:38:31.756Z,3.93
2019-03-31T22:40:59.505Z,9.33
2019-03-31T22:43:27.244Z,9.20
2019-03-31T22:46:14.366Z,6.87
2019-03-31T22:48:42.110Z,10.47
2019-03-31T22:51:09.922Z,6.00
2019-03-31T22:53:37.948Z,7.87
2019-03-31T22:56:05.424Z,7.83
2019-03-31T22:58:32.923Z,5.70
2019-03-31T23:01:20.212Z,11.23
2019-03-31T23:04:07.305Z,6.40
2019-03-31T23:06:47.251Z,13.97
2019-03-31T23:09:14.850Z,7.20
2019-03-31T23:12:02.004Z,2.83
2019-03-31T23:14:29.843Z,7.83
2019-03-31T23:16:57.710Z,9.80
2019-03-31T23:19:27.082Z,6.37
2019-03-31T23:21:54.601Z,6.53
2019-03-31T23:24:41.569Z,5.50
2019-03-31T23:27:09.045Z,7.33
2019-03-31T23:29:36.558Z,6.77
2019-03-31T23:32:04.163Z,8.10
2019-03-31T23:34:51.112Z,4.17
2019-03-31T23:37:31.573Z,5.90
2019-03-31T23:39:59.056Z,8.60
2019-03-31T23:42:26.464Z,6.37
2019-03-31T23:45:13.439Z,5.53
2019-03-31T23:47:40.984Z,5.57
2019-03-31T23:50:08.488Z,5.90
2019-03-31T23:52:36.174Z,8.83
2019-03-31T23:55:04.007Z,4.50
2019-03-31T23:57:50.945Z,7.87
